Terminal Aerodrome Forecast
Issued by NWS Billings, MT

Home | Current Version | Previous Version | Text Only | Print | Product List | Glossary On
Versions: 1 2 3 4 5 6 7 8 9 10 11 12 13 14 15 16 17 18 19 20 21 22 23 24 25 26 27 28 29 30
000
FTUS45 KBYZ 191727
TAFBIL
TAF
KBIL 191727Z 1918/2018 VRB06KT P6SM SCT080 BKN200
     FM192000 09011KT P6SM SCT070 BKN150
     FM200100 VRB06KT P6SM SCT070 BKN150
     FM200300 03014G22KT P6SM SCT070 BKN150
     FM200900 VRB06KT P6SM SCT070 BKN150=

USA.gov is the U.S. government's official web portal to all federal, state and local government web resources and services.